sensor_id;sensor_type;location;lat;lon;timestamp;P1;durP1;ratioP1;P2;durP2;ratioP2
8663;SDS011;4369;47.842;13.096;2023-05-01T00:00:26;5.47;;;4.97;;
8663;SDS011;4369;47.842;13.096;2023-05-01T00:02:52;5.40;;;4.90;;
8663;SDS011;4369;47.842;13.096;2023-05-01T00:05:19;6.03;;;5.33;;
8663;SDS011;4369;47.842;13.096;2023-05-01T00:07:46;6.60;;;5.77;;
8663;SDS011;4369;47.842;13.096;2023-05-01T00:10:13;8.40;;;5.63;;
8663;SDS011;4369;47.842;13.096;2023-05-01T00:12:41;7.40;;;5.60;;
8663;SDS011;4369;47.842;13.096;2023-05-01T00:15:09;6.17;;;5.57;;
8663;SDS011;4369;47.842;13.096;2023-05-01T00:17:36;6.37;;;5.87;;
8663;SDS011;4369;47.842;13.096;2023-05-01T00:20:04;5.60;;;5.10;;
8663;SDS011;4369;47.842;13.096;2023-05-01T00:22:32;7.03;;;5.83;;
8663;SDS011;4369;47.842;13.096;2023-05-01T00:24:59;5.93;;;5.43;;
8663;SDS011;4369;47.842;13.096;2023-05-01T00:27:26;7.83;;;5.33;;
8663;SDS011;4369;47.842;13.096;2023-05-01T00:29:53;6.50;;;5.90;;
8663;SDS011;4369;47.842;13.096;2023-05-01T00:32:21;6.03;;;5.10;;
8663;SDS011;4369;47.842;13.096;2023-05-01T00:34:48;5.93;;;5.33;;
8663;SDS011;4369;47.842;13.096;2023-05-01T00:37:15;6.87;;;5.43;;
8663;SDS011;4369;47.842;13.096;2023-05-01T00:39:42;5.57;;;5.07;;
8663;SDS011;4369;47.842;13.096;2023-05-01T00:42:09;6.00;;;5.40;;
8663;SDS011;4369;47.842;13.096;2023-05-01T00:44:36;6.30;;;5.17;;
8663;SDS011;4369;47.842;13.096;2023-05-01T00:47:03;5.50;;;4.90;;
8663;SDS011;4369;47.842;13.096;2023-05-01T00:49:32;5.33;;;4.93;;
8663;SDS011;4369;47.842;13.096;2023-05-01T00:51:59;5.27;;;4.67;;
8663;SDS011;4369;47.842;13.096;2023-05-01T00:54:26;5.60;;;5.10;;
8663;SDS011;4369;47.842;13.096;2023-05-01T00:56:53;5.87;;;5.27;;
8663;SDS011;4369;47.842;13.096;2023-05-01T00:59:20;6.03;;;5.30;;
8663;SDS011;4369;47.842;13.096;2023-05-01T01:01:47;5.57;;;5.07;;
8663;SDS011;4369;47.842;13.096;2023-05-01T01:04:16;5.50;;;4.97;;
8663;SDS011;4369;47.842;13.096;2023-05-01T01:06:46;5.37;;;4.90;;
8663;SDS011;4369;47.842;13.096;2023-05-01T01:09:22;5.67;;;5.17;;
8663;SDS011;4369;47.842;13.096;2023-05-01T01:12:00;6.00;;;5.40;;
8663;SDS011;4369;47.842;13.096;2023-05-01T01:14:35;8.50;;;5.67;;
8663;SDS011;4369;47.842;13.096;2023-05-01T01:17:08;5.93;;;5.33;;
8663;SDS011;4369;47.842;13.096;2023-05-01T01:19:48;5.93;;;5.13;;
8663;SDS011;4369;47.842;13.096;2023-05-01T01:22:31;5.73;;;5.20;;
8663;SDS011;4369;47.842;13.096;2023-05-01T01:25:08;6.17;;;5.43;;
8663;SDS011;4369;47.842;13.096;2023-05-01T01:28:03;5.67;;;5.10;;
8663;SDS011;4369;47.842;13.096;2023-05-01T01:30:46;5.90;;;5.40;;
8663;SDS011;4369;47.842;13.096;2023-05-01T01:33:46;8.50;;;5.23;;
8663;SDS011;4369;47.842;13.096;2023-05-01T01:36:19;5.77;;;5.03;;
8663;SDS011;4369;47.842;13.096;2023-05-01T01:38:53;6.30;;;5.03;;
8663;SDS011;4369;47.842;13.096;2023-05-01T01:41:28;5.43;;;4.93;;
8663;SDS011;4369;47.842;13.096;2023-05-01T01:43:59;5.97;;;5.37;;
8663;SDS011;4369;47.842;13.096;2023-05-01T01:46:29;5.60;;;5.10;;
8663;SDS011;4369;47.842;13.096;2023-05-01T01:49:02;5.73;;;5.23;;
8663;SDS011;4369;47.842;13.096;2023-05-01T01:51:34;5.53;;;5.03;;
8663;SDS011;4369;47.842;13.096;2023-05-01T01:54:05;5.40;;;4.90;;
8663;SDS011;4369;47.842;13.096;2023-05-01T01:56:34;5.53;;;5.03;;
8663;SDS011;4369;47.842;13.096;2023-05-01T01:59:03;5.13;;;4.70;;
8663;SDS011;4369;47.842;13.096;2023-05-01T02:01:31;5.10;;;4.53;;
8663;SDS011;4369;47.842;13.096;2023-05-01T02:03:59;6.27;;;5.27;;
8663;SDS011;4369;47.842;13.096;2023-05-01T02:06:30;5.10;;;4.60;;
8663;SDS011;4369;47.842;13.096;2023-05-01T02:08:59;5.83;;;4.83;;
8663;SDS011;4369;47.842;13.096;2023-05-01T02:11:27;6.30;;;5.60;;
8663;SDS011;4369;47.842;13.096;2023-05-01T02:13:56;8.40;;;4.47;;
8663;SDS011;4369;47.842;13.096;2023-05-01T02:16:25;5.60;;;5.10;;
8663;SDS011;4369;47.842;13.096;2023-05-01T02:18:53;5.70;;;4.80;;
8663;SDS011;4369;47.842;13.096;2023-05-01T02:21:23;6.60;;;5.43;;
8663;SDS011;4369;47.842;13.096;2023-05-01T02:23:52;7.97;;;5.17;;
8663;SDS011;4369;47.842;13.096;2023-05-01T02:26:20;6.77;;;5.50;;
8663;SDS011;4369;47.842;13.096;2023-05-01T02:28:50;5.87;;;4.90;;
8663;SDS011;4369;47.842;13.096;2023-05-01T02:31:17;5.60;;;5.10;;
8663;SDS011;4369;47.842;13.096;2023-05-01T02:33:44;6.40;;;5.10;;
8663;SDS011;4369;47.842;13.096;2023-05-01T02:36:10;5.60;;;5.00;;
8663;SDS011;4369;47.842;13.096;2023-05-01T02:38:39;5.83;;;5.27;;
8663;SDS011;4369;47.842;13.096;2023-05-01T02:41:06;5.40;;;4.90;;
8663;SDS011;4369;47.842;13.096;2023-05-01T02:43:35;6.83;;;5.87;;
8663;SDS011;4369;47.842;13.096;2023-05-01T02:46:03;7.50;;;5.00;;
8663;SDS011;4369;47.842;13.096;2023-05-01T02:48:34;5.47;;;4.97;;
8663;SDS011;4369;47.842;13.096;2023-05-01T02:51:02;6.07;;;5.40;;
8663;SDS011;4369;47.842;13.096;2023-05-01T02:53:30;6.67;;;5.43;;
8663;SDS011;4369;47.842;13.096;2023-05-01T02:55:59;6.27;;;5.07;;
8663;SDS011;4369;47.842;13.096;2023-05-01T02:58:29;5.90;;;5.30;;
8663;SDS011;4369;47.842;13.096;2023-05-01T03:00:57;7.33;;;5.37;;
8663;SDS011;4369;47.842;13.096;2023-05-01T03:03:24;8.20;;;5.10;;
8663;SDS011;4369;47.842;13.096;2023-05-01T03:05:51;6.77;;;5.73;;
8663;SDS011;4369;47.842;13.096;2023-05-01T03:08:18;6.10;;;5.50;;
8663;SDS011;4369;47.842;13.096;2023-05-01T03:10:45;5.70;;;5.07;;
8663;SDS011;4369;47.842;13.096;2023-05-01T03:13:13;7.13;;;5.80;;
8663;SDS011;4369;47.842;13.096;2023-05-01T03:15:40;5.47;;;4.90;;
8663;SDS011;4369;47.842;13.096;2023-05-01T03:18:07;5.93;;;5.33;;
8663;SDS011;4369;47.842;13.096;2023-05-01T03:20:34;5.40;;;4.90;;
8663;SDS011;4369;47.842;13.096;2023-05-01T03:23:01;5.60;;;5.00;;
8663;SDS011;4369;47.842;13.096;2023-05-01T03:25:28;5.20;;;4.80;;
8663;SDS011;4369;47.842;13.096;2023-05-01T03:27:55;5.27;;;4.77;;
8663;SDS011;4369;47.842;13.096;2023-05-01T03:30:23;5.90;;;5.27;;
8663;SDS011;4369;47.842;13.096;2023-05-01T03:32:50;5.13;;;4.73;;
8663;SDS011;4369;47.842;13.096;2023-05-01T03:35:17;4.97;;;4.57;;
8663;SDS011;4369;47.842;13.096;2023-05-01T03:37:43;5.77;;;5.13;;
8663;SDS011;4369;47.842;13.096;2023-05-01T03:40:11;6.17;;;4.70;;
8663;SDS011;4369;47.842;13.096;2023-05-01T03:42:38;5.13;;;4.63;;
8663;SDS011;4369;47.842;13.096;2023-05-01T03:45:05;5.50;;;5.00;;
8663;SDS011;4369;47.842;13.096;2023-05-01T03:47:34;5.77;;;5.20;;
8663;SDS011;4369;47.842;13.096;2023-05-01T03:50:01;6.20;;;5.40;;
8663;SDS011;4369;47.842;13.096;2023-05-01T03:52:28;6.07;;;4.97;;
8663;SDS011;4369;47.842;13.096;2023-05-01T03:54:55;5.63;;;5.00;;
8663;SDS011;4369;47.842;13.096;2023-05-01T03:57:22;6.00;;;5.33;;
8663;SDS011;4369;47.842;13.096;2023-05-01T03:59:49;6.13;;;5.53;;
8663;SDS011;4369;47.842;13.096;2023-05-01T04:02:16;6.13;;;5.23;;
8663;SDS011;4369;47.842;13.096;2023-05-01T04:04:44;5.77;;;5.20;;
8663;SDS011;4369;47.842;13.096;2023-05-01T04:07:11;5.37;;;4.87;;
8663;SDS011;4369;47.842;13.096;2023-05-01T04:09:39;5.50;;;4.80;;
8663;SDS011;4369;47.842;13.096;2023-05-01T04:12:06;6.10;;;5.50;;
8663;SDS011;4369;47.842;13.096;2023-05-01T04:14:32;5.63;;;5.07;;
8663;SDS011;4369;47.842;13.096;2023-05-01T04:16:59;5.80;;;5.20;;
8663;SDS011;4369;47.842;13.096;2023-05-01T04:19:26;6.93;;;5.83;;
8663;SDS011;4369;47.842;13.096;2023-05-01T04:21:54;6.30;;;5.63;;
8663;SDS011;4369;47.842;13.096;2023-05-01T04:24:22;6.57;;;5.97;;
8663;SDS011;4369;47.842;13.096;2023-05-01T04:26:49;7.23;;;5.97;;
8663;SDS011;4369;47.842;13.096;2023-05-01T04:29:15;6.73;;;5.87;;
8663;SDS011;4369;47.842;13.096;2023-05-01T04:31:42;7.20;;;6.50;;
8663;SDS011;4369;47.842;13.096;2023-05-01T04:34:09;6.57;;;5.87;;
8663;SDS011;4369;47.842;13.096;2023-05-01T04:36:36;9.00;;;5.77;;
8663;SDS011;4369;47.842;13.096;2023-05-01T04:39:05;6.10;;;5.50;;
8663;SDS011;4369;47.842;13.096;2023-05-01T04:41:31;5.93;;;5.33;;
8663;SDS011;4369;47.842;13.096;2023-05-01T04:43:58;5.70;;;5.20;;
8663;SDS011;4369;47.842;13.096;2023-05-01T04:46:25;6.00;;;5.40;;
8663;SDS011;4369;47.842;13.096;2023-05-01T04:48:52;5.93;;;5.33;;
8663;SDS011;4369;47.842;13.096;2023-05-01T04:51:19;7.90;;;5.43;;
8663;SDS011;4369;47.842;13.096;2023-05-01T04:53:46;6.03;;;5.37;;
8663;SDS011;4369;47.842;13.096;2023-05-01T04:56:14;7.63;;;5.27;;
8663;SDS011;4369;47.842;13.096;2023-05-01T04:58:41;8.57;;;5.50;;
8663;SDS011;4369;47.842;13.096;2023-05-01T05:01:08;6.73;;;5.40;;
8663;SDS011;4369;47.842;13.096;2023-05-01T05:03:35;6.10;;;5.60;;
8663;SDS011;4369;47.842;13.096;2023-05-01T05:06:01;6.10;;;5.50;;
8663;SDS011;4369;47.842;13.096;2023-05-01T05:08:29;7.70;;;5.93;;
8663;SDS011;4369;47.842;13.096;2023-05-01T05:10:56;11.17;;;5.77;;
8663;SDS011;4369;47.842;13.096;2023-05-01T05:13:25;5.77;;;5.17;;
8663;SDS011;4369;47.842;13.096;2023-05-01T05:15:52;6.47;;;5.40;;
8663;SDS011;4369;47.842;13.096;2023-05-01T05:18:19;6.37;;;4.97;;
8663;SDS011;4369;47.842;13.096;2023-05-01T05:20:46;5.33;;;4.83;;
8663;SDS011;4369;47.842;13.096;2023-05-01T05:23:13;5.77;;;5.03;;
8663;SDS011;4369;47.842;13.096;2023-05-01T05:25:40;7.57;;;5.73;;
8663;SDS011;4369;47.842;13.096;2023-05-01T05:28:07;6.77;;;5.70;;
8663;SDS011;4369;47.842;13.096;2023-05-01T05:30:35;5.93;;;5.33;;
8663;SDS011;4369;47.842;13.096;2023-05-01T05:33:02;5.67;;;5.07;;
8663;SDS011;4369;47.842;13.096;2023-05-01T05:35:29;6.60;;;5.50;;
8663;SDS011;4369;47.842;13.096;2023-05-01T05:37:58;7.33;;;6.43;;
8663;SDS011;4369;47.842;13.096;2023-05-01T05:40:25;8.27;;;7.03;;
8663;SDS011;4369;47.842;13.096;2023-05-01T05:42:52;8.07;;;7.27;;
8663;SDS011;4369;47.842;13.096;2023-05-01T05:45:20;7.13;;;6.43;;
8663;SDS011;4369;47.842;13.096;2023-05-01T05:47:48;6.27;;;4.77;;
8663;SDS011;4369;47.842;13.096;2023-05-01T05:50:15;5.50;;;5.00;;
8663;SDS011;4369;47.842;13.096;2023-05-01T05:52:42;6.97;;;5.50;;
8663;SDS011;4369;47.842;13.096;2023-05-01T05:55:09;6.73;;;5.90;;
8663;SDS011;4369;47.842;13.096;2023-05-01T05:57:36;6.77;;;5.60;;
8663;SDS011;4369;47.842;13.096;2023-05-01T06:00:03;6.37;;;5.77;;
8663;SDS011;4369;47.842;13.096;2023-05-01T06:02:30;6.63;;;5.93;;
8663;SDS011;4369;47.842;13.096;2023-05-01T06:04:59;6.97;;;6.23;;
8663;SDS011;4369;47.842;13.096;2023-05-01T06:07:25;7.20;;;6.10;;
8663;SDS011;4369;47.842;13.096;2023-05-01T06:09:52;6.37;;;5.77;;
8663;SDS011;4369;47.842;13.096;2023-05-01T06:12:22;7.20;;;6.33;;
8663;SDS011;4369;47.842;13.096;2023-05-01T06:14:49;7.07;;;5.70;;
8663;SDS011;4369;47.842;13.096;2023-05-01T06:17:16;6.40;;;5.80;;
8663;SDS011;4369;47.842;13.096;2023-05-01T06:19:43;7.60;;;6.13;;
8663;SDS011;4369;47.842;13.096;2023-05-01T06:22:11;6.93;;;6.23;;
8663;SDS011;4369;47.842;13.096;2023-05-01T06:24:38;7.78;;;7.07;;
8663;SDS011;4369;47.842;13.096;2023-05-01T06:27:05;6.93;;;6.33;;
8663;SDS011;4369;47.842;13.096;2023-05-01T06:29:32;7.40;;;6.70;;
8663;SDS011;4369;47.842;13.096;2023-05-01T06:31:59;6.83;;;6.07;;
8663;SDS011;4369;47.842;13.096;2023-05-01T06:34:25;8.70;;;6.43;;
8663;SDS011;4369;47.842;13.096;2023-05-01T06:36:52;7.47;;;6.23;;
8663;SDS011;4369;47.842;13.096;2023-05-01T06:39:20;8.80;;;6.50;;
8663;SDS011;4369;47.842;13.096;2023-05-01T06:41:47;7.17;;;6.47;;
8663;SDS011;4369;47.842;13.096;2023-05-01T06:44:14;7.30;;;6.60;;
8663;SDS011;4369;47.842;13.096;2023-05-01T06:46:41;6.63;;;6.03;;
8663;SDS011;4369;47.842;13.096;2023-05-01T06:49:08;7.63;;;6.77;;
8663;SDS011;4369;47.842;13.096;2023-05-01T06:51:35;7.70;;;7.00;;
8663;SDS011;4369;47.842;13.096;2023-05-01T06:54:02;10.00;;;7.80;;
8663;SDS011;4369;47.842;13.096;2023-05-01T06:56:30;7.93;;;6.93;;
8663;SDS011;4369;47.842;13.096;2023-05-01T06:58:57;7.77;;;7.03;;
8663;SDS011;4369;47.842;13.096;2023-05-01T07:01:24;9.10;;;7.40;;
8663;SDS011;4369;47.842;13.096;2023-05-01T07:03:51;8.17;;;7.47;;
8663;SDS011;4369;47.842;13.096;2023-05-01T07:06:18;8.10;;;7.30;;
8663;SDS011;4369;47.842;13.096;2023-05-01T07:08:45;8.27;;;7.47;;
8663;SDS011;4369;47.842;13.096;2023-05-01T07:11:13;7.93;;;6.90;;
8663;SDS011;4369;47.842;13.096;2023-05-01T07:13:41;8.67;;;7.40;;
8663;SDS011;4369;47.842;13.096;2023-05-01T07:16:08;8.57;;;7.03;;
8663;SDS011;4369;47.842;13.096;2023-05-01T07:18:35;7.83;;;7.13;;
8663;SDS011;4369;47.842;13.096;2023-05-01T07:21:02;7.93;;;7.13;;
8663;SDS011;4369;47.842;13.096;2023-05-01T07:23:30;8.13;;;7.33;;
8663;SDS011;4369;47.842;13.096;2023-05-01T07:25:57;8.43;;;7.40;;
8663;SDS011;4369;47.842;13.096;2023-05-01T07:28:24;7.93;;;6.97;;
8663;SDS011;4369;47.842;13.096;2023-05-01T07:30:52;7.73;;;6.97;;
8663;SDS011;4369;47.842;13.096;2023-05-01T07:33:19;7.87;;;7.07;;
8663;SDS011;4369;47.842;13.096;2023-05-01T07:35:45;7.53;;;6.70;;
8663;SDS011;4369;47.842;13.096;2023-05-01T07:38:14;8.10;;;6.57;;
8663;SDS011;4369;47.842;13.096;2023-05-01T07:40:41;9.93;;;6.87;;
8663;SDS011;4369;47.842;13.096;2023-05-01T07:43:08;7.33;;;6.67;;
8663;SDS011;4369;47.842;13.096;2023-05-01T07:45:35;8.13;;;7.30;;
8663;SDS011;4369;47.842;13.096;2023-05-01T07:48:04;7.73;;;6.40;;
8663;SDS011;4369;47.842;13.096;2023-05-01T07:50:31;7.40;;;6.60;;
8663;SDS011;4369;47.842;13.096;2023-05-01T07:52:58;7.73;;;6.70;;
8663;SDS011;4369;47.842;13.096;2023-05-01T07:55:25;7.87;;;6.47;;
8663;SDS011;4369;47.842;13.096;2023-05-01T07:57:52;6.97;;;6.27;;
8663;SDS011;4369;47.842;13.096;2023-05-01T08:00:19;6.87;;;6.10;;
8663;SDS011;4369;47.842;13.096;2023-05-01T08:02:46;6.87;;;6.17;;
8663;SDS011;4369;47.842;13.096;2023-05-01T08:05:14;7.33;;;5.90;;
8663;SDS011;4369;47.842;13.096;2023-05-01T08:07:41;8.17;;;6.10;;
8663;SDS011;4369;47.842;13.096;2023-05-01T08:10:08;6.80;;;6.20;;
8663;SDS011;4369;47.842;13.096;2023-05-01T08:12:35;7.00;;;6.27;;
8663;SDS011;4369;47.842;13.096;2023-05-01T08:15:02;6.43;;;5.83;;
8663;SDS011;4369;47.842;13.096;2023-05-01T08:17:30;6.13;;;5.53;;
8663;SDS011;4369;47.842;13.096;2023-05-01T08:19:59;6.47;;;5.87;;
8663;SDS011;4369;47.842;13.096;2023-05-01T08:22:27;6.07;;;5.57;;
8663;SDS011;4369;47.842;13.096;2023-05-01T08:24:54;6.37;;;5.73;;
8663;SDS011;4369;47.842;13.096;2023-05-01T08:27:21;5.67;;;5.13;;
8663;SDS011;4369;47.842;13.096;2023-05-01T08:29:48;6.37;;;5.77;;
8663;SDS011;4369;47.842;13.096;2023-05-01T08:32:15;5.73;;;5.23;;
8663;SDS011;4369;47.842;13.096;2023-05-01T08:34:43;6.20;;;5.60;;
8663;SDS011;4369;47.842;13.096;2023-05-01T08:37:10;5.73;;;5.23;;
8663;SDS011;4369;47.842;13.096;2023-05-01T08:39:38;6.07;;;5.47;;
8663;SDS011;4369;47.842;13.096;2023-05-01T08:42:05;5.87;;;5.27;;
8663;SDS011;4369;47.842;13.096;2023-05-01T08:44:33;6.33;;;5.50;;
8663;SDS011;4369;47.842;13.096;2023-05-01T08:47:06;7.13;;;6.00;;
8663;SDS011;4369;47.842;13.096;2023-05-01T08:49:37;6.60;;;5.87;;
8663;SDS011;4369;47.842;13.096;2023-05-01T08:52:07;5.60;;;5.10;;
8663;SDS011;4369;47.842;13.096;2023-05-01T08:54:36;5.57;;;5.07;;
8663;SDS011;4369;47.842;13.096;2023-05-01T08:57:08;5.57;;;5.00;;
8663;SDS011;4369;47.842;13.096;2023-05-01T08:59:36;6.67;;;5.73;;
8663;SDS011;4369;47.842;13.096;2023-05-01T09:02:05;6.33;;;5.63;;
8663;SDS011;4369;47.842;13.096;2023-05-01T09:04:33;6.00;;;5.40;;
8663;SDS011;4369;47.842;13.096;2023-05-01T09:07:01;6.07;;;5.57;;
8663;SDS011;4369;47.842;13.096;2023-05-01T09:09:29;5.83;;;5.33;;
8663;SDS011;4369;47.842;13.096;2023-05-01T09:12:00;6.87;;;5.40;;
8663;SDS011;4369;47.842;13.096;2023-05-01T09:14:31;5.83;;;5.33;;
8663;SDS011;4369;47.842;13.096;2023-05-01T09:16:58;5.47;;;5.07;;
8663;SDS011;4369;47.842;13.096;2023-05-01T09:19:25;5.90;;;5.40;;
8663;SDS011;4369;47.842;13.096;2023-05-01T09:21:52;4.90;;;4.47;;
8663;SDS011;4369;47.842;13.096;2023-05-01T09:24:21;6.30;;;4.83;;
8663;SDS011;4369;47.842;13.096;2023-05-01T09:26:49;4.30;;;4.00;;
8663;SDS011;4369;47.842;13.096;2023-05-01T09:32:13;4.00;;;3.70;;
8663;SDS011;4369;47.842;13.096;2023-05-01T09:34:42;4.77;;;4.33;;
8663;SDS011;4369;47.842;13.096;2023-05-01T09:37:10;4.23;;;3.83;;
8663;SDS011;4369;47.842;13.096;2023-05-01T09:39:38;4.73;;;4.27;;
8663;SDS011;4369;47.842;13.096;2023-05-01T09:42:06;3.93;;;3.63;;
8663;SDS011;4369;47.842;13.096;2023-05-01T09:44:40;4.60;;;4.20;;
8663;SDS011;4369;47.842;13.096;2023-05-01T09:47:09;4.63;;;3.97;;
8663;SDS011;4369;47.842;13.096;2023-05-01T09:49:44;4.70;;;4.33;;
8663;SDS011;4369;47.842;13.096;2023-05-01T09:52:13;5.30;;;4.80;;
8663;SDS011;4369;47.842;13.096;2023-05-01T09:54:40;5.23;;;4.70;;
8663;SDS011;4369;47.842;13.096;2023-05-01T09:57:08;5.33;;;4.40;;
8663;SDS011;4369;47.842;13.096;2023-05-01T09:59:35;4.77;;;4.40;;
8663;SDS011;4369;47.842;13.096;2023-05-01T10:02:04;5.90;;;4.63;;
8663;SDS011;4369;47.842;13.096;2023-05-01T10:04:31;5.20;;;4.60;;
8663;SDS011;4369;47.842;13.096;2023-05-01T10:06:59;5.37;;;4.80;;
8663;SDS011;4369;47.842;13.096;2023-05-01T10:09:36;5.57;;;4.97;;
8663;SDS011;4369;47.842;13.096;2023-05-01T10:12:03;5.43;;;5.03;;
8663;SDS011;4369;47.842;13.096;2023-05-01T10:14:30;5.17;;;4.67;;
8663;SDS011;4369;47.842;13.096;2023-05-01T10:17:07;5.10;;;4.70;;
8663;SDS011;4369;47.842;13.096;2023-05-01T10:19:43;5.27;;;4.77;;
8663;SDS011;4369;47.842;13.096;2023-05-01T10:22:10;5.43;;;4.93;;
8663;SDS011;4369;47.842;13.096;2023-05-01T10:24:37;5.37;;;4.97;;
8663;SDS011;4369;47.842;13.096;2023-05-01T10:27:05;6.17;;;4.87;;
8663;SDS011;4369;47.842;13.096;2023-05-01T10:29:33;5.27;;;4.87;;
8663;SDS011;4369;47.842;13.096;2023-05-01T10:32:02;5.20;;;4.80;;
8663;SDS011;4369;47.842;13.096;2023-05-01T10:34:32;5.40;;;5.00;;
8663;SDS011;4369;47.842;13.096;2023-05-01T10:37:04;5.97;;;5.23;;
8663;SDS011;4369;47.842;13.096;2023-05-01T10:39:37;5.40;;;4.90;;
8663;SDS011;4369;47.842;13.096;2023-05-01T10:42:04;5.40;;;4.90;;
8663;SDS011;4369;47.842;13.096;2023-05-01T10:44:35;4.97;;;4.57;;
8663;SDS011;4369;47.842;13.096;2023-05-01T10:50:08;4.70;;;4.30;;
8663;SDS011;4369;47.842;13.096;2023-05-01T10:55:43;4.30;;;3.70;;
8663;SDS011;4369;47.842;13.096;2023-05-01T10:58:11;4.10;;;3.80;;
8663;SDS011;4369;47.842;13.096;2023-05-01T11:00:39;4.73;;;4.07;;
8663;SDS011;4369;47.842;13.096;2023-05-01T11:06:07;4.33;;;3.93;;
8663;SDS011;4369;47.842;13.096;2023-05-01T11:08:35;4.20;;;3.93;;
8663;SDS011;4369;47.842;13.096;2023-05-01T11:14:06;4.13;;;3.83;;
8663;SDS011;4369;47.842;13.096;2023-05-01T11:16:41;4.40;;;4.00;;
8663;SDS011;4369;47.842;13.096;2023-05-01T11:19:11;4.43;;;3.93;;
8663;SDS011;4369;47.842;13.096;2023-05-01T11:21:54;4.27;;;3.87;;
8663;SDS011;4369;47.842;13.096;2023-05-01T11:24:27;4.00;;;3.70;;
8663;SDS011;4369;47.842;13.096;2023-05-01T11:26:56;4.20;;;3.90;;
8663;SDS011;4369;47.842;13.096;2023-05-01T11:29:27;3.90;;;3.70;;
8663;SDS011;4369;47.842;13.096;2023-05-01T11:31:56;4.50;;;4.00;;
8663;SDS011;4369;47.842;13.096;2023-05-01T11:34:23;4.17;;;3.73;;
8663;SDS011;4369;47.842;13.096;2023-05-01T11:36:51;3.90;;;3.60;;
8663;SDS011;4369;47.842;13.096;2023-05-01T11:39:19;3.93;;;3.63;;
8663;SDS011;4369;47.842;13.096;2023-05-01T11:41:46;3.70;;;3.42;;
8663;SDS011;4369;47.842;13.096;2023-05-01T11:44:14;3.47;;;3.28;;
8663;SDS011;4369;47.842;13.096;2023-05-01T11:46:42;4.53;;;3.70;;
8663;SDS011;4369;47.842;13.096;2023-05-01T11:49:09;3.42;;;3.20;;
8663;SDS011;4369;47.842;13.096;2023-05-01T11:51:36;3.53;;;3.23;;
8663;SDS011;4369;47.842;13.096;2023-05-01T11:54:05;4.00;;;3.60;;
8663;SDS011;4369;47.842;13.096;2023-05-01T11:56:33;3.55;;;3.30;;
8663;SDS011;4369;47.842;13.096;2023-05-01T11:59:08;3.60;;;3.30;;
8663;SDS011;4369;47.842;13.096;2023-05-01T12:01:37;3.00;;;2.80;;
8663;SDS011;4369;47.842;13.096;2023-05-01T12:04:05;3.08;;;2.88;;
8663;SDS011;4369;47.842;13.096;2023-05-01T12:06:36;3.43;;;3.13;;
8663;SDS011;4369;47.842;13.096;2023-05-01T12:09:09;4.17;;;3.87;;
8663;SDS011;4369;47.842;13.096;2023-05-01T12:11:36;4.20;;;3.90;;
8663;SDS011;4369;47.842;13.096;2023-05-01T12:14:04;3.70;;;3.47;;
8663;SDS011;4369;47.842;13.096;2023-05-01T12:16:31;3.80;;;3.50;;
8663;SDS011;4369;47.842;13.096;2023-05-01T12:18:58;3.80;;;3.50;;
8663;SDS011;4369;47.842;13.096;2023-05-01T12:21:25;4.32;;;4.03;;
8663;SDS011;4369;47.842;13.096;2023-05-01T12:23:52;5.40;;;4.65;;
8663;SDS011;4369;47.842;13.096;2023-05-01T12:26:21;3.90;;;3.60;;
8663;SDS011;4369;47.842;13.096;2023-05-01T12:28:54;3.92;;;3.63;;
8663;SDS011;4369;47.842;13.096;2023-05-01T12:31:21;3.70;;;3.50;;
8663;SDS011;4369;47.842;13.096;2023-05-01T12:33:52;4.53;;;4.22;;
8663;SDS011;4369;47.842;13.096;2023-05-01T12:36:21;4.60;;;4.20;;
8663;SDS011;4369;47.842;13.096;2023-05-01T12:38:53;5.28;;;4.88;;
8663;SDS011;4369;47.842;13.096;2023-05-01T12:41:31;4.70;;;4.38;;
8663;SDS011;4369;47.842;13.096;2023-05-01T12:44:13;5.03;;;4.63;;
8663;SDS011;4369;47.842;13.096;2023-05-01T12:46:42;5.68;;;4.47;;
8663;SDS011;4369;47.842;13.096;2023-05-01T12:49:15;4.47;;;4.18;;
8663;SDS011;4369;47.842;13.096;2023-05-01T12:51:45;4.32;;;4.00;;
8663;SDS011;4369;47.842;13.096;2023-05-01T12:54:16;5.80;;;5.30;;
8663;SDS011;4369;47.842;13.096;2023-05-01T12:56:46;5.27;;;4.87;;
8663;SDS011;4369;47.842;13.096;2023-05-01T12:59:20;5.97;;;5.47;;
8663;SDS011;4369;47.842;13.096;2023-05-01T13:01:48;5.20;;;4.77;;
8663;SDS011;4369;47.842;13.096;2023-05-01T13:04:23;5.50;;;4.82;;
8663;SDS011;4369;47.842;13.096;2023-05-01T13:06:50;5.40;;;4.90;;
8663;SDS011;4369;47.842;13.096;2023-05-01T13:09:19;5.07;;;4.57;;
8663;SDS011;4369;47.842;13.096;2023-05-01T13:11:56;5.20;;;4.80;;
8663;SDS011;4369;47.842;13.096;2023-05-01T13:14:24;5.15;;;4.70;;
8663;SDS011;4369;47.842;13.096;2023-05-01T13:16:51;4.68;;;4.30;;
8663;SDS011;4369;47.842;13.096;2023-05-01T13:19:25;5.78;;;4.50;;
8663;SDS011;4369;47.842;13.096;2023-05-01T13:21:53;5.07;;;4.28;;
8663;SDS011;4369;47.842;13.096;2023-05-01T13:24:21;5.72;;;4.85;;
8663;SDS011;4369;47.842;13.096;2023-05-01T13:26:48;4.53;;;4.22;;
8663;SDS011;4369;47.842;13.096;2023-05-01T13:29:26;4.65;;;4.35;;
8663;SDS011;4369;47.842;13.096;2023-05-01T13:31:54;5.18;;;4.68;;
8663;SDS011;4369;47.842;13.096;2023-05-01T13:34:23;4.90;;;4.50;;
8663;SDS011;4369;47.842;13.096;2023-05-01T13:36:54;4.80;;;4.50;;
8663;SDS011;4369;47.842;13.096;2023-05-01T13:39:21;5.07;;;4.68;;
8663;SDS011;4369;47.842;13.096;2023-05-01T13:41:48;4.63;;;4.23;;
8663;SDS011;4369;47.842;13.096;2023-05-01T13:44:17;4.70;;;4.33;;
8663;SDS011;4369;47.842;13.096;2023-05-01T13:46:44;4.70;;;4.30;;
8663;SDS011;4369;47.842;13.096;2023-05-01T13:49:12;4.50;;;4.20;;
8663;SDS011;4369;47.842;13.096;2023-05-01T13:51:40;4.77;;;4.37;;
8663;SDS011;4369;47.842;13.096;2023-05-01T13:54:09;4.90;;;4.60;;
8663;SDS011;4369;47.842;13.096;2023-05-01T13:56:37;4.40;;;4.10;;
8663;SDS011;4369;47.842;13.096;2023-05-01T13:59:05;5.00;;;4.60;;
8663;SDS011;4369;47.842;13.096;2023-05-01T14:01:38;4.83;;;4.33;;
8663;SDS011;4369;47.842;13.096;2023-05-01T14:04:12;4.67;;;4.20;;
8663;SDS011;4369;47.842;13.096;2023-05-01T14:06:42;4.80;;;3.97;;
8663;SDS011;4369;47.842;13.096;2023-05-01T14:09:10;4.50;;;4.10;;
8663;SDS011;4369;47.842;13.096;2023-05-01T14:11:42;4.47;;;4.18;;
8663;SDS011;4369;47.842;13.096;2023-05-01T14:14:10;5.73;;;4.60;;
8663;SDS011;4369;47.842;13.096;2023-05-01T14:16:41;5.22;;;4.72;;
8663;SDS011;4369;47.842;13.096;2023-05-01T14:19:12;4.47;;;4.00;;
8663;SDS011;4369;47.842;13.096;2023-05-01T14:21:41;4.93;;;4.63;;
8663;SDS011;4369;47.842;13.096;2023-05-01T14:24:08;4.87;;;4.47;;
8663;SDS011;4369;47.842;13.096;2023-05-01T14:26:35;4.37;;;4.00;;
8663;SDS011;4369;47.842;13.096;2023-05-01T14:29:11;4.10;;;3.80;;
8663;SDS011;4369;47.842;13.096;2023-05-01T14:31:46;4.27;;;3.97;;
8663;SDS011;4369;47.842;13.096;2023-05-01T14:34:14;4.47;;;4.17;;
8663;SDS011;4369;47.842;13.096;2023-05-01T14:36:42;5.77;;;4.00;;
8663;SDS011;4369;47.842;13.096;2023-05-01T14:39:09;4.40;;;4.10;;
8663;SDS011;4369;47.842;13.096;2023-05-01T14:41:38;5.00;;;4.60;;
8663;SDS011;4369;47.842;13.096;2023-05-01T14:44:09;5.90;;;5.40;;
8663;SDS011;4369;47.842;13.096;2023-05-01T14:46:41;6.47;;;5.88;;
8663;SDS011;4369;47.842;13.096;2023-05-01T14:49:11;5.70;;;5.13;;
8663;SDS011;4369;47.842;13.096;2023-05-01T14:51:43;4.97;;;4.57;;
8663;SDS011;4369;47.842;13.096;2023-05-01T14:54:11;5.40;;;4.90;;
8663;SDS011;4369;47.842;13.096;2023-05-01T14:56:38;6.28;;;5.68;;
8663;SDS011;4369;47.842;13.096;2023-05-01T14:59:05;5.07;;;4.68;;
8663;SDS011;4369;47.842;13.096;2023-05-01T15:01:32;5.97;;;4.90;;
8663;SDS011;4369;47.842;13.096;2023-05-01T15:03:59;5.50;;;4.95;;
8663;SDS011;4369;47.842;13.096;2023-05-01T15:06:27;5.30;;;4.90;;
8663;SDS011;4369;47.842;13.096;2023-05-01T15:08:54;4.97;;;4.57;;
8663;SDS011;4369;47.842;13.096;2023-05-01T15:11:21;6.03;;;5.53;;
8663;SDS011;4369;47.842;13.096;2023-05-01T15:13:48;6.07;;;5.60;;
8663;SDS011;4369;47.842;13.096;2023-05-01T15:16:15;6.73;;;6.23;;
8663;SDS011;4369;47.842;13.096;2023-05-01T15:18:42;6.90;;;6.30;;
8663;SDS011;4369;47.842;13.096;2023-05-01T15:21:09;6.70;;;6.10;;
8663;SDS011;4369;47.842;13.096;2023-05-01T15:23:37;6.37;;;5.80;;